Time;durP1;ratioP1;P1;durP2;ratioP2;P2;SDS_P1;SDS_P2;PMS_P1;PMS_P2;Temp;Humidity;BMP_temperature;BMP_pressure;BME280_temperature;BME280_humidity;BME280_pressure;Samples;Min_cycle;Max_cycle;Signal;HPM_P1;HPM_P2
2021/03/01 00:01:08;;;;;;;14.97;7.23;;;;;;;1.46;100.00;102814.00;4995907;28;20225;-74
2021/03/01 00:03:35;;;;;;;16.07;7.83;;;;;;;1.48;100.00;102822.72;4996249;28;20205;-74
2021/03/01 00:06:02;;;;;;;16.37;7.40;;;;;;;1.46;100.00;102824.31;4967000;28;20216;-74
2021/03/01 00:08:28;;;;;;;17.63;7.80;;;;;;;1.47;100.00;102815.78;4996045;28;20280;-74
2021/03/01 00:10:54;;;;;;;14.73;6.53;;;;;;;1.47;100.00;102823.50;4990778;28;20213;-74
2021/03/01 00:13:21;;;;;;;13.07;6.83;;;;;;;1.47;100.00;102834.66;4967503;28;20202;-74
2021/03/01 00:15:47;;;;;;;14.77;6.80;;;;;;;1.49;100.00;102833.03;4984595;28;20786;-74
2021/03/01 00:18:13;;;;;;;17.00;7.50;;;;;;;1.49;100.00;102838.19;4975599;28;20221;-74
2021/03/01 00:20:40;;;;;;;13.53;7.13;;;;;;;1.52;100.00;102828.03;4977480;28;20335;-74
2021/03/01 00:23:08;;;;;;;14.90;7.53;;;;;;;1.53;100.00;102828.94;4990586;28;20205;-73
2021/03/01 00:25:34;;;;;;;17.37;7.40;;;;;;;1.54;100.00;102833.25;4993455;28;20201;-74
2021/03/01 00:28:00;;;;;;;12.73;6.73;;;;;;;1.56;100.00;102834.22;4991130;28;20210;-74
2021/03/01 00:30:27;;;;;;;14.70;7.03;;;;;;;1.56;100.00;102833.34;4991551;28;20358;-74
2021/03/01 00:32:53;;;;;;;14.90;7.70;;;;;;;1.56;100.00;102836.78;4991430;28;20201;-73
2021/03/01 00:35:19;;;;;;;14.03;7.03;;;;;;;1.54;100.00;102833.25;4997712;28;20192;-74
2021/03/01 00:37:45;;;;;;;14.23;7.13;;;;;;;1.52;100.00;102820.31;4989785;28;20233;-74
2021/03/01 00:40:12;;;;;;;16.53;8.13;;;;;;;1.48;100.00;102821.00;4988318;28;20586;-74
2021/03/01 00:42:38;;;;;;;15.17;7.73;;;;;;;1.47;100.00;102818.38;5001914;28;20196;-74
2021/03/01 00:45:06;;;;;;;14.73;7.60;;;;;;;1.47;100.00;102814.09;4998000;28;20239;-74
2021/03/01 00:47:32;;;;;;;16.17;8.07;;;;;;;1.47;100.00;102814.09;4984024;28;20205;-74
2021/03/01 00:49:58;;;;;;;15.80;7.73;;;;;;;1.47;100.00;102815.78;4996712;28;20212;-74
2021/03/01 00:52:25;;;;;;;13.67;7.00;;;;;;;1.46;100.00;102814.00;4998389;28;20297;-74
2021/03/01 00:54:52;;;;;;;16.93;7.70;;;;;;;1.44;100.00;102803.69;4985995;28;20296;-74
2021/03/01 00:57:18;;;;;;;13.37;7.77;;;;;;;1.43;100.00;102808.75;4991502;28;20285;-74
2021/03/01 00:59:44;;;;;;;16.00;7.37;;;;;;;1.44;100.00;102813.97;5000269;28;20238;-73
2021/03/01 01:02:11;;;;;;;14.17;7.60;;;;;;;1.44;100.00;102810.50;4977139;28;20200;-74
2021/03/01 01:04:47;;;;;;;16.83;7.60;;;;;;;1.45;100.00;102812.28;4998140;28;20557;-74
2021/03/01 01:07:14;;;;;;;16.97;7.60;;;;;;;1.45;100.00;102809.69;4996542;28;20602;-73
2021/03/01 01:09:40;;;;;;;14.43;7.60;;;;;;;1.46;100.00;102830.34;4987411;28;20562;-74
2021/03/01 01:12:07;;;;;;;14.87;7.50;;;;;;;1.43;100.00;102812.19;4995222;28;20197;-74
2021/03/01 01:14:34;;;;;;;15.47;7.63;;;;;;;1.43;100.00;102819.91;4999495;28;20279;-74
2021/03/01 01:17:00;;;;;;;16.27;7.53;;;;;;;1.42;100.00;102813.00;4974776;28;20204;-74
2021/03/01 01:19:25;;;;;;;15.90;7.13;;;;;;;1.44;100.00;102816.53;4992396;28;20687;-74
2021/03/01 01:21:51;;;;;;;14.47;7.50;;;;;;;1.47;100.00;102811.53;4975638;28;20204;-74
2021/03/01 01:24:17;;;;;;;16.57;7.33;;;;;;;1.46;100.00;102816.59;4980162;28;20224;-74
2021/03/01 01:26:43;;;;;;;14.00;6.77;;;;;;;1.47;100.00;102808.06;4980391;28;20212;-74
2021/03/01 01:29:10;;;;;;;15.03;7.27;;;;;;;1.47;100.00;102805.50;4986830;28;20281;-74
2021/03/01 01:31:36;;;;;;;15.10;6.83;;;;;;;1.47;100.00;102800.38;4988535;28;20236;-74
2021/03/01 01:34:02;;;;;;;15.87;6.97;;;;;;;1.44;100.00;102813.06;4997556;28;20204;-74
2021/03/01 01:36:28;;;;;;;16.33;8.23;;;;;;;1.41;100.00;102808.69;4995752;28;20224;-74
2021/03/01 01:38:54;;;;;;;16.00;7.80;;;;;;;1.43;100.00;102803.63;5000139;28;20307;-74
2021/03/01 01:41:20;;;;;;;15.63;6.67;;;;;;;1.46;100.00;102806.31;5000970;28;20228;-74
2021/03/01 01:43:46;;;;;;;16.90;7.77;;;;;;;1.47;100.00;102806.38;5007168;28;20208;-74
2021/03/01 01:46:13;;;;;;;15.87;7.47;;;;;;;1.47;100.00;102803.81;4994068;28;20271;-75
2021/03/01 01:48:39;;;;;;;16.73;6.90;;;;;;;1.47;100.00;102801.25;4997930;28;20197;-74
2021/03/01 01:51:05;;;;;;;13.57;7.50;;;;;;;1.49;100.00;102807.31;4977441;28;20269;-74
2021/03/01 01:53:32;;;;;;;16.93;8.13;;;;;;;1.49;100.00;102804.75;4998313;28;20197;-74
2021/03/01 01:55:59;;;;;;;16.43;7.33;;;;;;;1.49;100.00;102809.91;4999218;28;20202;-74
2021/03/01 01:58:25;;;;;;;13.23;6.63;;;;;;;1.49;100.00;102812.47;4999071;28;20553;-74
2021/03/01 02:00:51;;;;;;;14.40;7.00;;;;;;;1.48;100.00;102808.16;4999905;28;20225;-73
2021/03/01 02:03:42;;;;;;;13.50;6.87;;;;;;;1.49;100.00;102807.31;4991004;28;20725;-71
2021/03/01 02:06:14;;;;;;;13.67;6.93;;;;;;;1.46;100.00;102804.63;4994380;28;20250;-73
2021/03/01 02:09:05;;;;;;;15.33;6.87;;;;;;;1.46;100.00;102814.00;4993105;28;20648;-74
2021/03/01 02:11:39;;;;;;;13.73;6.57;;;;;;;1.48;100.00;102815.88;4991812;28;20656;-74
2021/03/01 02:14:11;;;;;;;16.40;7.30;;;;;;;1.45;100.00;102802.84;4996398;28;20256;-74
2021/03/01 02:16:37;;;;;;;14.10;6.63;;;;;;;1.44;100.00;102811.41;4997405;28;20193;-74
2021/03/01 02:19:05;;;;;;;13.80;7.17;;;;;;;1.45;100.00;102807.13;4995533;28;20278;-75
2021/03/01 02:21:32;;;;;;;14.63;7.20;;;;;;;1.44;100.00;102801.13;5004258;28;20208;-74
2021/03/01 02:23:59;;;;;;;14.13;7.20;;;;;;;1.46;100.00;102812.34;4996747;28;20268;-74
2021/03/01 02:26:27;;;;;;;13.13;6.97;;;;;;;1.47;100.00;102810.66;5003901;28;20227;-74
2021/03/01 02:28:58;;;;;;;16.10;6.87;;;;;;;1.47;100.00;102810.66;4991538;28;20220;-74
2021/03/01 02:31:27;;;;;;;13.50;6.90;;;;;;;1.45;100.00;102815.72;5001701;28;20235;-74
2021/03/01 02:33:57;;;;;;;16.30;7.13;;;;;;;1.48;100.00;102817.56;5002839;28;20202;-74
2021/03/01 02:36:28;;;;;;;14.27;6.07;;;;;;;1.48;100.00;102812.44;4996230;28;20228;-74
2021/03/01 02:38:55;;;;;;;12.93;6.53;;;;;;;1.45;100.00;102813.16;4997178;28;20224;-74
2021/03/01 02:41:24;;;;;;;13.87;7.50;;;;;;;1.46;100.00;102825.19;4992936;28;20216;-74
2021/03/01 02:43:52;;;;;;;18.33;7.47;;;;;;;1.45;100.00;102813.16;4995768;28;20204;-74
2021/03/01 02:46:18;;;;;;;13.07;6.20;;;;;;;1.47;100.00;102816.66;5003310;28;20254;-74
2021/03/01 02:48:46;;;;;;;15.47;7.57;;;;;;;1.50;100.00;102827.09;4986298;28;20193;-74
2021/03/01 02:51:13;;;;;;;13.57;7.30;;;;;;;1.51;100.00;102822.81;4995505;28;20221;-74
2021/03/01 02:53:41;;;;;;;17.40;7.50;;;;;;;1.50;100.00;102818.50;4976099;28;20241;-74
2021/03/01 02:56:08;;;;;;;17.33;8.00;;;;;;;1.49;100.00;102814.16;4968882;28;20207;-75
2021/03/01 02:58:38;;;;;;;14.03;7.13;;;;;;;1.50;100.00;102826.22;4996744;28;20686;-74
2021/03/01 03:01:05;;;;;;;12.20;6.93;;;;;;;1.52;100.00;102828.03;4996239;28;20227;-74
2021/03/01 03:03:33;;;;;;;16.23;7.53;;;;;;;1.48;100.00;102820.13;4987058;28;20194;-74
2021/03/01 03:05:59;;;;;;;15.27;6.93;;;;;;;1.47;100.00;102818.38;5001013;28;20792;-74
2021/03/01 03:08:29;;;;;;;14.70;6.63;;;;;;;1.48;100.00;102820.13;4990273;28;20197;-74
2021/03/01 03:10:56;;;;;;;14.73;7.07;;;;;;;1.50;100.00;102821.09;4988761;28;20228;-74
2021/03/01 03:13:23;;;;;;;15.40;7.07;;;;;;;1.48;100.00;102820.13;4994672;28;20797;-74
2021/03/01 03:15:52;;;;;;;12.83;6.47;;;;;;;1.49;100.00;102824.44;4986702;28;20208;-74
2021/03/01 03:18:20;;;;;;;16.57;7.27;;;;;;;1.49;100.00;102820.19;4990947;28;20201;-74
2021/03/01 03:20:46;;;;;;;18.13;7.10;;;;;;;1.48;100.00;102812.44;5004270;28;20221;-74
2021/03/01 03:23:12;;;;;;;12.30;6.57;;;;;;;1.48;100.00;102815.00;4975525;28;20680;-74
2021/03/01 03:25:39;;;;;;;12.00;6.73;;;;;;;1.48;100.00;102822.72;5005794;28;20208;-74
2021/03/01 03:28:06;;;;;;;13.83;7.13;;;;;;;1.46;100.00;102814.91;4997601;28;20669;-74
2021/03/01 03:30:32;;;;;;;13.60;7.00;;;;;;;1.46;100.00;102814.91;4999035;28;20216;-74
2021/03/01 03:32:59;;;;;;;16.30;7.47;;;;;;;1.47;100.00;102813.22;4993303;28;20212;-75
2021/03/01 03:35:27;;;;;;;19.57;8.10;;;;;;;1.48;100.00;102823.56;5003195;28;20204;-74
2021/03/01 03:37:57;;;;;;;18.23;8.10;;;;;;;1.48;100.00;102815.88;4990278;28;20207;-74
2021/03/01 03:40:25;;;;;;;16.23;7.67;;;;;;;1.46;100.00;102814.91;4999749;28;20247;-74
2021/03/01 03:42:52;;;;;;;18.13;8.00;;;;;;;1.48;100.00;102822.72;4998772;28;20200;-74
2021/03/01 03:45:19;;;;;;;16.20;7.57;;;;;;;1.45;100.00;102818.28;4983254;28;20661;-74
2021/03/01 03:47:48;;;;;;;15.63;7.53;;;;;;;1.50;100.00;102814.25;4977744;28;20198;-74
2021/03/01 03:50:15;;;;;;;16.07;7.43;;;;;;;1.48;100.00;102818.44;4992064;28;20217;-73
2021/03/01 03:52:45;;;;;;;16.00;7.80;;;;;;;1.46;100.00;102814.91;4990508;28;20216;-74
2021/03/01 03:55:15;;;;;;;15.67;6.90;;;;;;;1.46;100.00;102814.00;4989478;28;20193;-74
2021/03/01 03:57:46;;;;;;;18.40;8.17;;;;;;;1.45;100.00;102812.28;4992252;28;20209;-72
2021/03/01 04:00:13;;;;;;;18.70;7.70;;;;;;;1.44;100.00;102810.50;4974787;28;20225;-74
2021/03/01 04:02:41;;;;;;;15.93;8.27;;;;;;;1.45;100.00;102810.56;4995803;28;20196;-74
2021/03/01 04:05:08;;;;;;;15.83;6.97;;;;;;;1.47;100.00;102815.78;5000727;28;20193;-74
2021/03/01 04:07:38;;;;;;;17.40;7.63;;;;;;;1.46;100.00;102807.22;4998711;28;20555;-73
2021/03/01 04:10:07;;;;;;;15.80;7.47;;;;;;;1.46;100.00;102801.16;5001655;28;20236;-73
2021/03/01 04:12:35;;;;;;;16.37;7.80;;;;;;;1.45;100.00;102797.72;4980088;28;20201;-74
2021/03/01 04:15:04;;;;;;;15.40;7.83;;;;;;;1.45;100.00;102802.00;5004226;28;20199;-73
2021/03/01 04:17:34;;;;;;;18.13;8.10;;;;;;;1.43;100.00;102794.19;4999484;28;20699;-73
2021/03/01 04:20:01;;;;;;;17.90;8.17;;;;;;;1.43;100.00;102794.19;4998853;28;20222;-74
2021/03/01 04:22:29;;;;;;;15.57;7.07;;;;;;;1.44;100.00;102795.06;4998196;28;20193;-73
2021/03/01 04:24:57;;;;;;;14.03;6.70;;;;;;;1.43;100.00;102788.19;4995746;28;20672;-73
2021/03/01 04:27:23;;;;;;;15.93;6.73;;;;;;;1.45;100.00;102787.44;4981022;28;20222;-74
2021/03/01 04:29:50;;;;;;;14.27;7.13;;;;;;;1.44;100.00;102783.13;5003744;28;20309;-73
2021/03/01 04:32:17;;;;;;;18.03;7.67;;;;;;;1.44;100.00;102784.78;4999450;28;20196;-74
2021/03/01 04:34:44;;;;;;;12.97;6.80;;;;;;;1.45;100.00;102782.28;4992159;28;20276;-73
2021/03/01 04:37:10;;;;;;;14.87;6.80;;;;;;;1.43;100.00;102783.91;4995966;28;20198;-74
2021/03/01 04:39:36;;;;;;;15.70;7.43;;;;;;;1.42;100.00;102782.16;4995863;28;20291;-74
2021/03/01 04:42:05;;;;;;;14.73;7.50;;;;;;;1.45;100.00;102784.88;5003527;28;20220;-74
2021/03/01 04:44:32;;;;;;;15.50;7.27;;;;;;;1.44;100.00;102787.34;4990261;28;20206;-74
2021/03/01 04:47:00;;;;;;;15.27;6.97;;;;;;;1.44;100.00;102787.34;4986270;28;20193;-73
2021/03/01 04:49:27;;;;;;;15.90;7.57;;;;;;;1.44;100.00;102788.25;4994581;28;20193;-74
2021/03/01 04:51:54;;;;;;;14.87;6.97;;;;;;;1.46;100.00;102796.03;4995134;28;20280;-74
2021/03/01 04:54:21;;;;;;;15.10;7.20;;;;;;;1.46;100.00;102793.44;4982036;28;20205;-72
2021/03/01 04:56:49;;;;;;;15.83;7.70;;;;;;;1.44;100.00;102797.66;5000674;28;20240;-72
2021/03/01 04:59:18;;;;;;;14.50;6.60;;;;;;;1.43;100.00;102791.63;4999735;28;20271;-72
2021/03/01 05:01:45;;;;;;;14.67;7.40;;;;;;;1.43;100.00;102799.34;4998199;28;20743;-72
2021/03/01 05:04:11;;;;;;;15.53;7.57;;;;;;;1.45;100.00;102802.84;4998016;28;20232;-73
2021/03/01 05:06:39;;;;;;;14.70;7.50;;;;;;;1.45;100.00;102805.44;4985910;28;20193;-73
2021/03/01 05:09:06;;;;;;;13.77;7.20;;;;;;;1.45;100.00;102802.00;4986648;28;20190;-73
2021/03/01 05:11:35;;;;;;;15.40;7.17;;;;;;;1.44;100.00;102802.78;4989983;28;20220;-73
2021/03/01 05:14:02;;;;;;;14.93;7.50;;;;;;;1.44;100.00;102803.69;4990875;28;20197;-72
2021/03/01 05:16:30;;;;;;;18.13;7.63;;;;;;;1.45;100.00;102807.13;4994078;28;20196;-72
2021/03/01 05:18:57;;;;;;;15.57;6.97;;;;;;;1.44;100.00;102806.25;4996882;28;20255;-73
2021/03/01 05:21:23;;;;;;;11.57;6.70;;;;;;;1.43;100.00;102809.63;4997195;28;20434;-73
2021/03/01 05:23:49;;;;;;;15.03;7.10;;;;;;;1.49;100.00;102811.59;4980351;28;20253;-73
2021/03/01 05:26:15;;;;;;;15.77;6.70;;;;;;;1.46;100.00;102802.06;4995280;28;20209;-73
2021/03/01 05:28:41;;;;;;;21.70;8.13;;;;;;;1.44;100.00;102798.53;4992714;28;20212;-73
2021/03/01 05:31:08;;;;;;;16.20;7.30;;;;;;;1.46;100.00;102798.59;4983867;28;20217;-73
2021/03/01 05:33:35;;;;;;;15.23;7.27;;;;;;;1.46;100.00;102804.63;4996881;28;20200;-72
2021/03/01 05:36:02;;;;;;;17.43;7.83;;;;;;;1.48;100.00;102794.44;5000626;28;20200;-72
2021/03/01 05:38:28;;;;;;;16.97;7.47;;;;;;;1.46;100.00;102796.91;4998162;28;20197;-71
2021/03/01 05:40:54;;;;;;;15.60;7.53;;;;;;;1.45;100.00;102799.41;4992370;28;20791;-72
2021/03/01 05:43:25;;;;;;;15.97;7.27;;;;;;;1.45;100.00;102797.72;4979223;28;20204;-73
2021/03/01 05:45:52;;;;;;;14.00;6.97;;;;;;;1.47;100.00;102803.81;4982579;28;20772;-72
2021/03/01 05:48:20;;;;;;;17.07;7.63;;;;;;;1.47;100.00;102803.81;4989647;28;20197;-73
2021/03/01 05:50:53;;;;;;;13.73;6.93;;;;;;;1.48;100.00;102804.72;4994250;28;20209;-72
2021/03/01 05:53:24;;;;;;;15.07;6.70;;;;;;;1.50;100.00;102813.38;4995633;28;20198;-73
2021/03/01 05:55:51;;;;;;;14.03;7.13;;;;;;;1.50;100.00;102811.66;4992730;28;20216;-72
2021/03/01 05:58:17;;;;;;;16.20;7.13;;;;;;;1.52;100.00;102824.59;4993665;28;20204;-72
2021/03/01 06:00:45;;;;;;;15.13;7.30;;;;;;;1.52;100.00;102819.47;4995887;28;20220;-73
2021/03/01 06:03:13;;;;;;;15.03;7.30;;;;;;;1.53;100.00;102821.22;4988671;28;20603;-73
2021/03/01 06:05:39;;;;;;;17.50;7.60;;;;;;;1.52;100.00;102820.31;4994501;28;20197;-73
2021/03/01 06:08:07;;;;;;;16.40;7.43;;;;;;;1.55;100.00;102817.03;4993302;28;20244;-73
2021/03/01 06:10:33;;;;;;;13.97;6.80;;;;;;;1.55;100.00;102819.59;4994896;28;20220;-73
2021/03/01 06:12:59;;;;;;;17.07;7.03;;;;;;;1.57;100.00;102817.97;4991027;28;20268;-73
2021/03/01 06:15:26;;;;;;;14.13;6.97;;;;;;;1.56;100.00;102818.78;4983534;28;20212;-72
2021/03/01 06:18:07;;;;;;;13.87;6.43;;;;;;;1.61;100.00;102822.44;4993470;28;20197;-73
2021/03/01 06:20:33;;;;;;;17.93;7.87;;;;;;;1.63;100.00;102831.09;4990913;28;20241;-73
2021/03/01 06:23:00;;;;;;;13.50;6.80;;;;;;;1.64;100.00;102839.72;4994587;28;20692;-73
2021/03/01 06:25:27;;;;;;;15.77;7.23;;;;;;;1.65;100.00;102831.19;4991734;28;20192;-70
2021/03/01 06:27:55;;;;;;;12.23;6.27;;;;;;;1.67;100.00;102832.13;4982764;28;20581;-73
2021/03/01 06:30:24;;;;;;;16.90;8.00;;;;;;;1.70;100.00;102832.28;4992840;28;20221;-72
2021/03/01 06:33:13;;;;;;;17.37;7.60;;;;;;;1.73;100.00;102846.97;4972970;28;20198;-74
2021/03/01 06:35:45;;;;;;;19.73;7.53;;;;;;;1.74;100.00;102848.72;4992467;28;20197;-73
2021/03/01 06:38:20;;;;;;;17.33;7.63;;;;;;;1.76;100.00;102842.84;4995475;28;20188;-74
2021/03/01 06:41:07;;;;;;;25.70;13.57;;;;;;;1.78;100.00;102846.38;4992881;28;20227;-73
2021/03/01 06:43:33;;;;;;;18.73;8.30;;;;;;;1.82;100.00;102850.84;4993778;28;20283;-73
2021/03/01 06:46:06;;;;;;;17.83;7.83;;;;;;;1.84;100.00;102851.78;4989692;28;20232;-74
2021/03/01 06:48:33;;;;;;;14.03;7.73;;;;;;;1.85;100.00;102853.56;4978419;28;20239;-73
2021/03/01 06:50:59;;;;;;;20.40;11.10;;;;;;;1.91;100.00;102849.50;4995832;28;20574;-73
2021/03/01 06:53:25;;;;;;;17.57;8.23;;;;;;;1.94;100.00;102847.06;4993570;28;20209;-73
2021/03/01 06:55:57;;;;;;;17.77;7.57;;;;;;;1.97;100.00;102849.75;4998547;28;20283;-73
2021/03/01 06:58:25;;;;;;;18.87;8.87;;;;;;;2.00;100.00;102853.34;4996046;28;20565;-73
2021/03/01 07:01:03;;;;;;;16.30;8.43;;;;;;;2.04;100.00;102855.28;4993485;28;20214;-73
2021/03/01 07:03:30;;;;;;;20.17;8.63;;;;;;;2.08;100.00;102854.59;4997608;28;20640;-73
2021/03/01 07:05:58;;;;;;;16.90;8.30;;;;;;;2.13;100.00;102851.31;4998927;28;20202;-72
2021/03/01 07:08:31;;;;;;;18.50;8.57;;;;;;;2.16;100.00;102846.31;4996335;28;20207;-74
2021/03/01 07:10:59;;;;;;;20.33;8.80;;;;;;;2.21;100.00;102852.56;4997046;28;20588;-74
2021/03/01 07:13:27;;;;;;;16.60;8.50;;;;;;;2.24;100.00;102860.41;4991314;28;20208;-74
2021/03/01 07:15:54;;;;;;;21.13;8.77;;;;;;;2.27;100.00;102865.72;4991338;28;20193;-73
2021/03/01 07:18:20;;;;;;;17.33;8.80;;;;;;;2.31;100.00;102866.72;4993789;28;20213;-73
2021/03/01 07:20:48;;;;;;;18.47;8.67;;;;;;;2.38;100.00;102873.91;5000575;28;20215;-74
2021/03/01 07:23:15;;;;;;;21.53;10.37;;;;;;;2.38;100.00;102879.03;5000863;28;20189;-72
2021/03/01 07:25:43;;;;;;;19.80;8.57;;;;;;;2.44;100.00;102882.75;4995403;28;20196;-74
2021/03/01 07:28:13;;;;;;;19.83;7.80;;;;;;;2.48;100.00;102881.22;4996226;28;20201;-73
2021/03/01 07:30:41;;;;;;;17.10;8.53;;;;;;;2.52;100.00;102887.38;4991142;28;20221;-74
2021/03/01 07:33:07;;;;;;;16.30;7.63;;;;;;;2.55;99.96;102890.06;4990752;28;20661;-73
2021/03/01 07:35:35;;;;;;;18.17;8.70;;;;;;;2.56;100.00;102887.56;4990811;28;20210;-73
2021/03/01 07:38:01;;;;;;;18.33;8.90;;;;;;;2.63;99.98;102887.00;4991435;28;20662;-73
2021/03/01 07:40:27;;;;;;;18.47;8.87;;;;;;;2.67;99.69;102888.00;4998848;28;20588;-73
2021/03/01 07:42:54;;;;;;;18.83;8.67;;;;;;;2.76;99.65;102887.50;4992850;28;20209;-74
2021/03/01 07:45:21;;;;;;;19.10;8.77;;;;;;;2.77;99.05;102891.88;4993164;28;20689;-73
2021/03/01 07:47:47;;;;;;;17.80;8.87;;;;;;;2.82;99.30;102888.66;5000773;28;20200;-74
2021/03/01 07:50:32;;;;;;;24.00;9.80;;;;;;;2.87;99.23;102885.38;4972310;28;20257;-74
2021/03/01 07:52:58;;;;;;;18.00;8.30;;;;;;;2.88;98.52;102892.31;5002448;28;20263;-72
2021/03/01 07:55:24;;;;;;;50.77;17.83;;;;;;;2.95;98.49;102878.88;4984505;28;20206;-73
2021/03/01 07:58:00;;;;;;;17.07;8.73;;;;;;;2.98;98.06;102884.16;4993604;28;20194;-73
2021/03/01 08:00:33;;;;;;;17.37;8.30;;;;;;;3.00;97.80;102880.81;4985801;28;20221;-70
2021/03/01 08:03:01;;;;;;;18.23;9.27;;;;;;;3.07;97.38;102886.22;4988942;28;20207;-73
2021/03/01 08:05:28;;;;;;;14.87;8.47;;;;;;;3.08;97.48;102882.81;4986227;28;20202;-73
2021/03/01 08:07:54;;;;;;;16.07;7.77;;;;;;;3.14;96.93;102883.94;4990505;28;20202;-72
2021/03/01 08:10:42;;;;;;;22.60;10.70;;;;;;;3.19;96.37;102885.03;4996858;28;20217;-71
2021/03/01 08:13:09;;;;;;;43.73;16.13;;;;;;;3.29;96.56;102896.59;4992731;28;20559;-73
2021/03/01 08:15:41;;;;;;;18.70;9.67;;;;;;;3.36;96.45;102900.28;4982885;28;20201;-72
2021/03/01 08:18:09;;;;;;;16.63;8.60;;;;;;;3.42;96.36;102900.53;4997080;28;20211;-73
2021/03/01 08:20:54;;;;;;;17.87;8.17;;;;;;;3.47;96.10;102898.16;4992259;28;20234;-73
2021/03/01 08:23:34;;;;;;;17.57;8.23;;;;;;;3.47;95.65;102896.44;4989938;28;20198;-71
2021/03/01 08:26:03;;;;;;;16.30;8.13;;;;;;;3.53;95.35;102896.66;4981234;28;20204;-73
2021/03/01 08:28:50;;;;;;;38.27;16.13;;;;;;;3.63;94.90;102902.22;4963378;28;20198;-73
2021/03/01 08:31:24;;;;;;;38.30;16.43;;;;;;;3.67;94.82;102899.78;4991576;28;20216;-71
2021/03/01 08:33:51;;;;;;;14.93;8.87;;;;;;;3.76;94.22;102899.25;4985349;28;20572;-73
2021/03/01 08:36:22;;;;;;;15.83;8.13;;;;;;;3.79;93.13;102900.25;4975753;28;20209;-75
2021/03/01 08:38:50;;;;;;;15.40;8.30;;;;;;;3.83;92.16;102906.41;4977744;28;20232;-73
2021/03/01 08:41:18;;;;;;;18.07;11.57;;;;;;;3.90;92.18;102898.06;4975787;28;20249;-72
2021/03/01 08:43:45;;;;;;;15.57;8.07;;;;;;;3.98;92.32;102901.84;4989139;28;20378;-72
2021/03/01 08:46:19;;;;;;;13.87;7.77;;;;;;;4.01;91.41;102913.09;4982850;28;20288;-73
2021/03/01 08:48:48;;;;;;;13.97;8.57;;;;;;;4.07;90.54;102910.75;4971585;28;20703;-73
2021/03/01 08:51:16;;;;;;;15.63;7.67;;;;;;;4.13;90.57;102904.13;4995761;28;20220;-70
2021/03/01 08:53:42;;;;;;;13.07;8.13;;;;;;;4.22;90.35;102903.59;4963594;28;20200;-72
2021/03/01 08:56:18;;;;;;;13.20;7.33;;;;;;;4.31;89.91;102905.59;4976324;28;20249;-73
2021/03/01 08:58:44;;;;;;;13.50;7.87;;;;;;;4.33;88.85;102910.00;4961740;28;20202;-70
2021/03/01 09:01:10;;;;;;;16.90;9.13;;;;;;;4.35;88.35;102915.22;4993135;28;20295;-74
2021/03/01 09:03:37;;;;;;;20.03;11.87;;;;;;;4.35;87.62;102918.69;4992679;28;20197;-74
2021/03/01 09:06:06;;;;;;;10.60;7.40;;;;;;;4.39;86.72;102922.25;4991523;28;20212;-73
2021/03/01 09:08:35;;;;;;;21.93;12.13;;;;;;;4.50;86.82;102926.13;4979273;28;20225;-73
2021/03/01 09:11:04;;;;;;;11.13;7.03;;;;;;;4.46;84.73;102923.38;4992612;28;20217;-71
2021/03/01 09:13:34;;;;;;;12.03;6.43;;;;;;;4.43;83.69;102929.28;4999335;28;20216;-75
2021/03/01 09:16:05;;;;;;;9.17;5.90;;;;;;;4.32;81.69;102930.59;5004125;28;20193;-72
2021/03/01 09:18:32;;;;;;;7.87;5.03;;;;;;;4.41;82.11;102928.34;4993813;28;20190;-74
2021/03/01 09:20:58;;;;;;;9.07;5.47;;;;;;;4.50;82.10;102932.97;4993973;28;20216;-73
2021/03/01 09:23:45;;;;;;;10.13;6.90;;;;;;;4.44;83.40;102931.06;4999679;28;20568;-73
2021/03/01 09:26:23;;;;;;;11.80;7.80;;;;;;;4.62;84.86;102930.81;4986723;28;20217;-73
2021/03/01 09:28:50;;;;;;;12.23;6.50;;;;;;;4.67;83.02;102937.03;4994598;28;20323;-72
2021/03/01 09:31:16;;;;;;;8.57;6.20;;;;;;;4.79;84.12;102928.84;4977739;28;20224;-72
2021/03/01 09:33:44;;;;;;;10.53;6.80;;;;;;;4.85;82.59;102939.38;4991309;28;20201;-73
2021/03/01 09:36:11;;;;;;;12.53;6.80;;;;;;;4.99;83.14;102936.38;4983242;28;20557;-72
2021/03/01 09:38:40;;;;;;;8.07;5.93;;;;;;;4.97;81.80;102941.50;4994698;28;20193;-73
2021/03/01 09:41:09;;;;;;;12.27;6.60;;;;;;;5.00;82.99;102940.75;4993911;28;20217;-72
2021/03/01 09:43:36;;;;;;;9.20;6.57;;;;;;;5.05;82.35;102934.03;4982058;28;20201;-74
2021/03/01 09:46:03;;;;;;;10.23;6.37;;;;;;;5.03;81.23;102944.31;4991019;28;20209;-73
2021/03/01 09:48:32;;;;;;;9.07;6.23;;;;;;;5.01;81.09;102940.78;4994702;28;20216;-75
2021/03/01 09:50:58;;;;;;;10.90;6.87;;;;;;;5.02;81.06;102945.13;4993630;28;20228;-74
2021/03/01 09:53:27;;;;;;;9.70;6.87;;;;;;;5.13;82.68;102942.91;4997315;28;20204;-74
2021/03/01 09:55:54;;;;;;;11.43;6.50;;;;;;;5.19;81.31;102944.81;4996842;28;20561;-74
2021/03/01 09:58:24;;;;;;;11.53;6.97;;;;;;;5.26;81.41;102942.50;4996687;28;20236;-73
2021/03/01 10:00:50;;;;;;;8.87;6.57;;;;;;;5.25;79.78;102943.31;5001658;28;20220;-74
2021/03/01 10:03:16;;;;;;;11.70;6.50;;;;;;;5.38;80.79;102942.03;4999287;28;20277;-74
2021/03/01 10:05:48;;;;;;;14.50;7.37;;;;;;;5.39;80.92;102946.34;4993129;28;20192;-74
2021/03/01 10:08:19;;;;;;;9.33;6.67;;;;;;;5.58;80.12;102949.53;4980940;28;20193;-74
2021/03/01 10:10:45;;;;;;;8.63;6.73;;;;;;;5.67;80.24;102944.66;4990296;28;20212;-74
2021/03/01 10:13:12;;;;;;;10.83;7.50;;;;;;;5.72;78.56;102948.25;4974829;28;20216;-72
2021/03/01 10:15:43;;;;;;;8.50;5.70;;;;;;;5.69;77.13;102956.78;4993455;28;20244;-74
2021/03/01 10:18:11;;;;;;;12.17;6.83;;;;;;;5.65;77.57;102949.78;4988830;28;20189;-74
2021/03/01 10:20:48;;;;;;;9.77;6.57;;;;;;;5.61;78.03;102947.94;4996839;28;20230;-74
2021/03/01 10:23:30;;;;;;;11.13;6.93;;;;;;;5.54;77.64;102943.38;4985468;28;20207;-72
2021/03/01 10:26:14;;;;;;;11.27;6.30;;;;;;;5.58;78.17;102954.72;4994337;28;20204;-71
2021/03/01 10:28:43;;;;;;;18.60;11.80;;;;;;;5.50;76.43;102960.53;4985842;28;20571;-74
2021/03/01 10:31:12;;;;;;;12.17;7.13;;;;;;;5.39;76.46;102958.41;4967754;28;20586;-74
2021/03/01 10:33:58;;;;;;;12.23;7.80;;;;;;;5.45;76.73;102959.50;4996464;28;20669;-74
2021/03/01 10:36:26;;;;;;;8.07;6.07;;;;;;;5.57;77.74;102956.41;4984648;28;20193;-71
2021/03/01 10:38:58;;;;;;;11.80;6.30;;;;;;;5.71;76.44;102962.00;4991553;28;20217;-72
2021/03/01 10:41:26;;;;;;;9.83;6.40;;;;;;;5.63;77.25;102958.34;4987552;28;20222;-73
2021/03/01 10:43:55;;;;;;;11.33;6.67;;;;;;;5.60;77.60;102955.63;4994267;28;20693;-72
2021/03/01 10:46:44;;;;;;;9.70;6.57;;;;;;;5.61;75.54;102952.19;4991122;28;20198;-71
2021/03/01 10:49:20;;;;;;;10.00;6.87;;;;;;;5.59;76.61;102956.44;4962189;28;20209;-73
2021/03/01 10:51:47;;;;;;;9.27;6.13;;;;;;;5.61;77.39;102949.59;4984090;28;20228;-74
2021/03/01 10:54:13;;;;;;;8.60;6.60;;;;;;;5.66;77.30;102948.94;4993447;28;20708;-71
2021/03/01 10:56:39;;;;;;;10.90;6.60;;;;;;;5.61;76.62;102950.50;4989649;28;20592;-71
2021/03/01 10:59:06;;;;;;;10.33;6.53;;;;;;;5.62;77.76;102941.91;4994399;28;20224;-73
2021/03/01 11:01:33;;;;;;;11.30;7.13;;;;;;;5.57;77.06;102940.00;4989622;28;20230;-73
2021/03/01 11:04:00;;;;;;;9.60;6.63;;;;;;;5.50;75.84;102946.69;4992984;28;20197;-73
2021/03/01 11:06:26;;;;;;;9.20;6.97;;;;;;;5.48;78.10;102931.09;4998391;28;20204;-73
2021/03/01 11:08:52;;;;;;;13.87;10.27;;;;;;;5.38;77.09;102938.53;4959548;28;20289;-73
2021/03/01 11:11:18;;;;;;;12.40;7.27;;;;;;;5.52;77.76;102945.03;4985375;28;20289;-73
2021/03/01 11:13:44;;;;;;;9.63;6.87;;;;;;;5.57;77.32;102940.88;4987817;28;20274;-72
2021/03/01 11:16:11;;;;;;;9.97;6.23;;;;;;;5.65;76.99;102930.78;4988918;28;20684;-71
2021/03/01 11:18:37;;;;;;;10.87;6.90;;;;;;;5.76;76.34;102941.47;4975560;28;20201;-73
2021/03/01 11:21:03;;;;;;;12.17;6.60;;;;;;;5.77;76.55;102935.44;4986685;28;20252;-74
2021/03/01 11:23:29;;;;;;;8.77;6.60;;;;;;;5.82;75.79;102926.09;4991224;28;20197;-74
2021/03/01 11:25:55;;;;;;;12.07;6.47;;;;;;;5.85;76.52;102926.19;4991965;28;20192;-72